createdAt,value
2019-02-10T00:00:01.103Z,92.30
2019-02-10T00:01:09.182Z,92.30
2019-02-10T00:02:13.487Z,92.30
2019-02-10T00:03:17.563Z,92.20
2019-02-10T00:04:21.658Z,92.20
2019-02-10T00:05:25.732Z,92.20
2019-02-10T00:06:29.819Z,92.20
2019-02-10T00:07:33.882Z,92.20
2019-02-10T00:08:37.960Z,92.10
2019-02-10T00:09:42.084Z,92.20
2019-02-10T00:10:46.154Z,92.10
2019-02-10T00:11:50.236Z,92.20
2019-02-10T00:13:23.850Z,92.20
2019-02-10T00:14:27.934Z,92.20
2019-02-10T00:15:32.085Z,92.10
2019-02-10T00:16:36.162Z,92.10
2019-02-10T00:17:40.234Z,92.20
2019-02-10T00:18:44.308Z,92.20
2019-02-10T00:19:48.395Z,92.20
2019-02-10T00:20:52.479Z,92.50
2019-02-10T00:21:56.565Z,92.20
2019-02-10T00:23:00.710Z,92.30
2019-02-10T00:24:04.923Z,92.30
2019-02-10T00:25:09.298Z,92.30
2019-02-10T00:26:13.599Z,92.40
2019-02-10T00:27:17.675Z,92.30
2019-02-10T00:28:21.743Z,92.30
2019-02-10T00:29:25.824Z,92.30
2019-02-10T00:30:29.891Z,92.40
2019-02-10T00:31:34.004Z,92.20
2019-02-10T00:32:38.080Z,92.30
2019-02-10T00:33:42.160Z,92.40
2019-02-10T00:34:46.240Z,92.40
2019-02-10T00:35:50.307Z,92.40
2019-02-10T00:36:54.403Z,92.40
2019-02-10T00:37:58.488Z,92.60
2019-02-10T00:39:03.866Z,92.40
2019-02-10T00:40:08.005Z,92.40
2019-02-10T00:41:12.480Z,92.40
2019-02-10T00:42:16.575Z,92.40
2019-02-10T00:43:20.686Z,92.40
2019-02-10T00:44:24.790Z,92.40
2019-02-10T00:45:28.864Z,92.40
2019-02-10T00:46:32.930Z,92.50
2019-02-10T00:47:37.043Z,92.50
2019-02-10T00:48:41.114Z,92.50
2019-02-10T00:49:45.187Z,92.50
2019-02-10T00:50:49.340Z,92.50
2019-02-10T00:51:53.410Z,92.50
2019-02-10T00:52:57.506Z,92.50
2019-02-10T00:54:01.595Z,92.50
2019-02-10T00:55:05.672Z,92.50
2019-02-10T00:56:10.230Z,92.50
2019-02-10T00:57:14.298Z,92.80
2019-02-10T00:58:18.386Z,92.50
2019-02-10T00:59:22.502Z,92.60
2019-02-10T01:00:26.606Z,92.60
2019-02-10T01:01:30.675Z,92.60
2019-02-10T01:02:34.763Z,92.60
2019-02-10T01:03:38.939Z,92.60
2019-02-10T01:04:43.002Z,92.70
2019-02-10T01:05:47.088Z,92.60
2019-02-10T01:06:51.163Z,92.60
2019-02-10T01:07:55.223Z,92.60
2019-02-10T01:08:59.507Z,92.60
2019-02-10T01:10:03.646Z,92.60
2019-02-10T01:11:07.777Z,92.60
2019-02-10T01:12:12.426Z,92.60
2019-02-10T01:13:16.542Z,92.60
2019-02-10T01:14:20.640Z,92.70
2019-02-10T01:15:24.707Z,92.70
2019-02-10T01:16:28.771Z,92.70
2019-02-10T01:17:32.845Z,92.70
2019-02-10T01:18:36.928Z,92.70
2019-02-10T01:19:41.031Z,92.70
2019-02-10T01:20:45.103Z,92.80
2019-02-10T01:21:49.203Z,92.80
2019-02-10T01:22:53.331Z,93.00
2019-02-10T01:23:57.419Z,92.80
2019-02-10T01:25:01.519Z,92.80
2019-02-10T01:26:05.599Z,93.10
2019-02-10T01:27:10.322Z,92.80
2019-02-10T01:28:14.515Z,92.80
2019-02-10T01:29:18.596Z,92.90
2019-02-10T01:30:22.724Z,92.90
2019-02-10T01:31:27.022Z,92.90
2019-02-10T01:32:31.091Z,92.90
2019-02-10T01:33:35.175Z,92.90
2019-02-10T01:34:39.251Z,92.90
2019-02-10T01:35:43.355Z,93.00
2019-02-10T01:36:49.757Z,93.00
2019-02-10T01:37:53.210Z,93.00
2019-02-10T01:38:57.292Z,93.10
2019-02-10T01:40:01.372Z,93.10
2019-02-10T01:41:05.464Z,93.10
2019-02-10T01:42:10.203Z,93.10
2019-02-10T01:43:14.280Z,93.20
2019-02-10T01:44:18.446Z,93.20
2019-02-10T01:45:22.587Z,93.20
2019-02-10T01:46:26.735Z,93.20
2019-02-10T01:47:30.852Z,93.20
2019-02-10T01:48:34.955Z,93.30
2019-02-10T01:49:39.026Z,93.30
2019-02-10T01:50:43.161Z,93.30
2019-02-10T01:51:47.350Z,93.30
2019-02-10T01:52:51.414Z,93.30
2019-02-10T01:53:55.487Z,93.40
2019-02-10T01:54:59.565Z,93.40
2019-02-10T01:56:03.631Z,93.40
2019-02-10T01:57:08.051Z,93.50
2019-02-10T01:58:12.398Z,93.50
2019-02-10T01:59:16.463Z,93.50
2019-02-10T02:00:20.551Z,93.60
2019-02-10T02:01:24.628Z,93.60
2019-02-10T02:02:28.765Z,93.60
2019-02-10T02:03:32.855Z,93.60
2019-02-10T02:04:37.203Z,93.60
2019-02-10T02:05:41.270Z,93.60
2019-02-10T02:06:45.387Z,94.00
2019-02-10T02:07:49.479Z,93.70
2019-02-10T02:08:53.559Z,93.80
2019-02-10T02:09:57.636Z,93.80
2019-02-10T02:11:01.809Z,93.80
2019-02-10T02:12:06.507Z,93.80
2019-02-10T02:13:11.059Z,93.80
2019-02-10T02:14:15.184Z,93.80
2019-02-10T02:15:19.251Z,93.80
2019-02-10T02:16:23.462Z,93.70
2019-02-10T02:17:27.527Z,93.70
2019-02-10T02:18:31.619Z,93.60
2019-02-10T02:19:35.683Z,93.70
2019-02-10T02:20:39.786Z,93.70
2019-02-10T02:21:43.937Z,93.80
2019-02-10T02:22:48.016Z,93.80
2019-02-10T02:23:52.107Z,94.10
2019-02-10T02:24:56.175Z,93.80
2019-02-10T02:26:00.261Z,93.80
2019-02-10T02:27:04.341Z,93.80
2019-02-10T02:28:08.696Z,93.90
2019-02-10T02:29:12.825Z,93.90
2019-02-10T02:30:16.932Z,93.90
2019-02-10T02:31:21.008Z,93.90
2019-02-10T02:32:25.107Z,94.00
2019-02-10T02:33:29.207Z,94.00
2019-02-10T02:34:33.299Z,94.00
2019-02-10T02:35:37.358Z,94.00
2019-02-10T02:36:44.264Z,94.10
2019-02-10T02:37:48.367Z,94.20
2019-02-10T02:38:52.495Z,94.40
2019-02-10T02:39:56.583Z,94.40
2019-02-10T02:41:00.656Z,94.80
2019-02-10T02:42:04.736Z,94.60
2019-02-10T02:43:09.079Z,94.90
2019-02-10T02:44:13.155Z,95.40
2019-02-10T02:45:17.247Z,95.20
2019-02-10T02:46:21.316Z,95.30
2019-02-10T02:47:25.438Z,95.50
2019-02-10T02:48:29.498Z,95.80
2019-02-10T02:49:33.564Z,96.00
2019-02-10T02:50:37.665Z,96.40
2019-02-10T02:51:41.731Z,96.50
2019-02-10T02:52:45.792Z,96.80
2019-02-10T02:53:49.893Z,96.90
2019-02-10T02:54:54.019Z,96.90
2019-02-10T02:55:58.107Z,97.10
2019-02-10T02:57:02.176Z,97.30
2019-02-10T02:58:06.248Z,97.50
2019-02-10T02:59:10.796Z,97.60
2019-02-10T03:00:14.881Z,97.80
2019-02-10T03:01:18.991Z,98.00
2019-02-10T03:02:23.064Z,98.00
2019-02-10T03:03:27.156Z,98.10
2019-02-10T03:04:31.222Z,98.40
2019-02-10T03:05:35.296Z,98.50
2019-02-10T03:06:46.105Z,98.50
2019-02-10T03:07:50.227Z,98.60
2019-02-10T03:08:54.304Z,98.70
2019-02-10T03:09:58.391Z,98.80
2019-02-10T03:11:02.540Z,98.90
2019-02-10T03:12:06.937Z,99.20
2019-02-10T03:13:11.561Z,99.10
2019-02-10T03:14:15.656Z,99.10
2019-02-10T03:15:19.716Z,99.20
2019-02-10T03:16:23.791Z,99.00
2019-02-10T03:17:27.905Z,99.20
2019-02-10T03:18:32.044Z,99.30
2019-02-10T03:19:36.115Z,99.50
2019-02-10T03:20:40.205Z,99.50
2019-02-10T03:21:44.321Z,99.60
2019-02-10T03:22:48.506Z,99.60
2019-02-10T03:23:52.636Z,99.60
2019-02-10T03:24:56.716Z,99.50
2019-02-10T03:26:00.795Z,99.50
2019-02-10T03:27:04.872Z,99.60
2019-02-10T03:28:09.341Z,99.70
2019-02-10T03:29:13.484Z,99.70
2019-02-10T03:30:17.571Z,99.90
2019-02-10T03:31:21.717Z,99.90
2019-02-10T03:32:25.788Z,99.90
2019-02-10T03:33:29.895Z,99.90
2019-02-10T03:34:34.044Z,99.90
2019-02-10T03:35:38.180Z,99.90
2019-02-10T03:36:42.321Z,99.90
2019-02-10T03:37:46.394Z,99.90
2019-02-10T03:38:50.494Z,99.90
2019-02-10T03:39:54.575Z,99.90
2019-02-10T03:40:58.644Z,99.90
2019-02-10T03:42:02.714Z,99.90
2019-02-10T03:43:06.917Z,99.90
2019-02-10T03:44:11.432Z,99.90
2019-02-10T03:45:15.504Z,99.90
2019-02-10T03:46:19.562Z,99.90
2019-02-10T03:47:23.637Z,99.90
2019-02-10T03:48:27.783Z,99.90
2019-02-10T03:49:31.941Z,99.90
2019-02-10T03:50:36.014Z,99.90
2019-02-10T03:51:40.120Z,99.90
2019-02-10T03:52:44.218Z,99.90
2019-02-10T03:53:48.399Z,99.90
2019-02-10T03:54:52.491Z,99.90
2019-02-10T03:55:56.555Z,99.90
2019-02-10T03:57:00.625Z,99.90
2019-02-10T03:58:04.691Z,99.90
2019-02-10T03:59:09.347Z,99.90
2019-02-10T04:00:13.944Z,99.90
2019-02-10T04:01:18.028Z,99.90
2019-02-10T04:02:22.091Z,99.90
2019-02-10T04:03:26.159Z,99.90
2019-02-10T04:04:30.236Z,99.90
2019-02-10T04:05:34.327Z,99.90
2019-02-10T04:06:38.394Z,99.90
2019-02-10T04:07:42.461Z,99.90
2019-02-10T04:08:46.521Z,99.90
2019-02-10T04:09:50.594Z,99.90
2019-02-10T04:10:54.772Z,99.90
2019-02-10T04:11:58.871Z,99.90
2019-02-10T04:13:02.945Z,99.90
2019-02-10T04:14:07.030Z,99.90
2019-02-10T04:15:11.096Z,99.90
2019-02-10T04:16:15.187Z,99.90
2019-02-10T04:17:19.254Z,99.90
2019-02-10T04:18:23.329Z,99.90
2019-02-10T04:19:27.458Z,99.90
2019-02-10T04:20:31.616Z,99.90
2019-02-10T04:21:35.720Z,99.90
2019-02-10T04:22:39.795Z,99.90
2019-02-10T04:23:43.863Z,99.90
2019-02-10T04:24:47.939Z,99.90
2019-02-10T04:25:52.068Z,99.90
2019-02-10T04:26:56.194Z,99.90
2019-02-10T04:28:00.270Z,99.90
2019-02-10T04:29:04.346Z,99.90
2019-02-10T04:30:09.564Z,99.90
2019-02-10T04:31:13.735Z,99.90
2019-02-10T04:32:17.845Z,99.90
2019-02-10T04:33:21.923Z,99.90
2019-02-10T04:34:25.992Z,99.90
2019-02-10T04:35:30.151Z,99.90
2019-02-10T04:36:34.231Z,99.90
2019-02-10T04:37:45.638Z,99.90
2019-02-10T04:38:44.124Z,99.90
2019-02-10T04:39:48.191Z,99.90
2019-02-10T04:40:52.258Z,99.90
2019-02-10T04:41:56.333Z,99.90
2019-02-10T04:43:00.497Z,99.90
2019-02-10T04:44:04.635Z,99.90
2019-02-10T04:45:09.138Z,99.90
2019-02-10T04:46:13.337Z,99.90
2019-02-10T04:47:17.403Z,99.90
2019-02-10T04:48:21.506Z,99.90
2019-02-10T04:49:25.579Z,99.90
2019-02-10T04:50:29.651Z,99.90
2019-02-10T04:51:33.726Z,99.90
2019-02-10T04:52:37.874Z,99.90
2019-02-10T04:53:41.982Z,99.90
2019-02-10T04:54:46.112Z,99.90
2019-02-10T04:56:12.400Z,99.90
2019-02-10T04:57:16.541Z,99.90
2019-02-10T04:58:20.698Z,99.90
2019-02-10T04:59:24.859Z,99.90
2019-02-10T05:00:28.930Z,99.90
2019-02-10T05:01:33.004Z,99.90
2019-02-10T05:02:37.071Z,99.90
2019-02-10T05:03:41.145Z,99.90
2019-02-10T05:04:45.254Z,99.90
2019-02-10T05:05:49.316Z,99.90
2019-02-10T05:06:53.396Z,99.90
2019-02-10T05:07:57.487Z,99.90
2019-02-10T05:09:01.631Z,99.90
2019-02-10T05:10:06.509Z,99.90
2019-02-10T05:11:10.953Z,99.90
2019-02-10T05:12:15.043Z,99.90
2019-02-10T05:13:19.115Z,99.90
2019-02-10T05:14:23.183Z,99.90
2019-02-10T05:15:27.275Z,99.90
2019-02-10T05:16:31.366Z,99.90
2019-02-10T05:17:35.429Z,99.90
2019-02-10T05:18:39.502Z,99.90
2019-02-10T05:19:43.694Z,99.90
2019-02-10T05:20:47.848Z,99.90
2019-02-10T05:21:51.931Z,99.90
2019-02-10T05:22:56.005Z,99.90
2019-02-10T05:24:03.430Z,99.90
2019-02-10T05:25:06.188Z,99.90
2019-02-10T05:26:10.585Z,99.90
2019-02-10T05:27:14.692Z,99.90
2019-02-10T05:28:18.761Z,99.90
2019-02-10T05:29:22.831Z,99.90
2019-02-10T05:30:26.908Z,99.90
2019-02-10T05:31:30.999Z,99.90
2019-02-10T05:32:35.085Z,99.90
2019-02-10T05:33:39.211Z,99.90
2019-02-10T05:34:43.285Z,99.90
2019-02-10T05:35:47.351Z,99.90
2019-02-10T05:36:51.447Z,99.90
2019-02-10T05:38:03.878Z,99.90
2019-02-10T05:39:01.695Z,99.90
2019-02-10T05:40:05.992Z,99.90
2019-02-10T05:41:10.703Z,99.90
2019-02-10T05:42:14.801Z,99.90
2019-02-10T05:43:18.871Z,99.90
2019-02-10T05:44:22.951Z,99.90
2019-02-10T05:45:27.023Z,99.90
2019-02-10T05:46:31.098Z,99.90
2019-02-10T05:47:35.184Z,99.90
2019-02-10T05:48:39.261Z,99.90
2019-02-10T05:49:43.328Z,99.90
2019-02-10T05:50:47.434Z,99.90
2019-02-10T05:51:51.511Z,99.90
2019-02-10T05:52:55.673Z,99.90
2019-02-10T05:53:59.760Z,99.90
2019-02-10T05:55:03.860Z,99.90
2019-02-10T05:56:08.122Z,99.90
2019-02-10T05:57:12.227Z,99.90
2019-02-10T05:58:16.328Z,99.90
2019-02-10T05:59:20.400Z,99.90
2019-02-10T06:00:24.483Z,99.90
2019-02-10T06:01:58.598Z,99.90
2019-02-10T06:03:02.658Z,99.90
2019-02-10T06:04:06.760Z,99.90
2019-02-10T06:05:17.257Z,99.90
2019-02-10T06:06:21.326Z,99.90
2019-02-10T06:07:25.398Z,99.90
2019-02-10T06:08:29.472Z,99.90
2019-02-10T06:09:33.562Z,99.90
2019-02-10T06:10:37.646Z,99.90
2019-02-10T06:11:41.737Z,99.90
2019-02-10T06:12:45.947Z,99.90
2019-02-10T06:13:50.022Z,99.90
2019-02-10T06:14:54.146Z,99.90
2019-02-10T06:15:58.291Z,99.90
2019-02-10T06:17:02.371Z,99.90
2019-02-10T06:18:06.526Z,99.90
2019-02-10T06:19:10.943Z,99.90
2019-02-10T06:20:15.086Z,99.90
2019-02-10T06:21:19.158Z,99.90
2019-02-10T06:22:23.231Z,99.90
2019-02-10T06:23:27.311Z,99.90
2019-02-10T06:24:31.463Z,99.90
2019-02-10T06:25:35.687Z,99.90
2019-02-10T06:26:39.765Z,99.90
2019-02-10T06:27:43.839Z,99.90
2019-02-10T06:28:47.907Z,99.90
2019-02-10T06:29:51.979Z,99.90
2019-02-10T06:30:56.070Z,99.90
2019-02-10T06:32:00.139Z,99.90
2019-02-10T06:33:04.206Z,99.90
2019-02-10T06:34:08.578Z,99.90
2019-02-10T06:35:12.700Z,99.90
2019-02-10T06:36:16.879Z,99.90
2019-02-10T06:37:21.036Z,99.90
2019-02-10T06:38:25.103Z,99.90
2019-02-10T06:39:29.170Z,99.90
2019-02-10T06:40:33.248Z,99.90
2019-02-10T06:41:37.369Z,99.90
2019-02-10T06:42:41.441Z,99.90
2019-02-10T06:43:45.535Z,99.90
2019-02-10T06:44:49.615Z,99.90
2019-02-10T06:45:53.683Z,99.90
2019-02-10T06:46:57.771Z,99.90
2019-02-10T06:48:01.852Z,99.90
2019-02-10T06:49:05.939Z,99.90
2019-02-10T06:50:11.019Z,99.90
2019-02-10T06:51:15.090Z,99.90
2019-02-10T06:52:19.188Z,99.90
2019-02-10T06:53:23.249Z,99.90
2019-02-10T06:54:27.379Z,99.90
2019-02-10T06:55:31.459Z,99.90
2019-02-10T06:56:35.582Z,99.90
2019-02-10T06:57:39.682Z,99.90
2019-02-10T06:58:43.750Z,99.90
2019-02-10T06:59:52.903Z,99.90
2019-02-10T07:01:18.975Z,99.90
2019-02-10T07:02:38.279Z,99.90
2019-02-10T07:03:51.420Z,99.90
2019-02-10T07:04:55.551Z,99.90
2019-02-10T07:05:59.618Z,99.90
2019-02-10T07:07:03.743Z,99.90
2019-02-10T07:08:07.982Z,99.90
2019-02-10T07:09:12.158Z,99.90
2019-02-10T07:10:16.231Z,99.90
2019-02-10T07:11:20.307Z,99.90
2019-02-10T07:12:49.758Z,99.90
2019-02-10T07:13:56.323Z,99.90
2019-02-10T07:15:04.375Z,99.90
2019-02-10T07:16:33.711Z,99.90
2019-02-10T07:18:19.183Z,99.90
2019-02-10T07:20:16.615Z,99.90
2019-02-10T07:21:20.735Z,99.90
2019-02-10T07:23:21.543Z,99.90
2019-02-10T07:24:45.835Z,99.90
2019-02-10T07:26:15.462Z,99.90
2019-02-10T07:27:22.854Z,99.90
2019-02-10T07:29:31.540Z,99.90
2019-02-10T07:30:48.843Z,99.90
2019-02-10T07:31:55.235Z,99.90
2019-02-10T07:32:59.323Z,99.90
2019-02-10T07:34:48.176Z,99.90
2019-02-10T07:36:21.653Z,99.90
2019-02-10T07:37:52.236Z,99.90
2019-02-10T07:39:43.935Z,99.90
2019-02-10T07:41:21.268Z,99.90
2019-02-10T07:43:06.033Z,99.90
2019-02-10T07:44:27.747Z,99.90
2019-02-10T07:46:15.242Z,99.90
2019-02-10T07:47:49.602Z,99.90
2019-02-10T07:49:24.875Z,99.90
2019-02-10T07:51:12.860Z,99.90
2019-02-10T07:52:59.035Z,99.90
2019-02-10T07:54:22.283Z,99.90
2019-02-10T07:56:13.679Z,99.90
2019-02-10T07:57:55.016Z,99.90
2019-02-10T07:59:37.982Z,99.90
2019-02-10T08:00:58.367Z,99.90
2019-02-10T08:02:30.755Z,99.90
2019-02-10T08:03:56.578Z,99.90
2019-02-10T08:05:47.208Z,99.90
2019-02-10T08:07:14.308Z,99.90
2019-02-10T08:09:11.967Z,99.90
2019-02-10T08:10:32.627Z,99.90
2019-02-10T08:11:57.914Z,99.90
2019-02-10T08:13:10.725Z,99.90
2019-02-10T08:15:05.045Z,99.90
2019-02-10T08:16:46.182Z,99.90
2019-02-10T08:18:40.578Z,99.90
2019-02-10T08:20:23.075Z,99.90
2019-02-10T08:22:05.368Z,99.90
2019-02-10T08:23:43.163Z,99.90
2019-02-10T08:24:59.755Z,99.90
2019-02-10T08:26:43.003Z,99.90
2019-02-10T08:28:30.399Z,99.90
2019-02-10T08:30:21.807Z,99.90
2019-02-10T08:32:01.926Z,99.90
2019-02-10T08:33:33.980Z,99.90
2019-02-10T08:35:32.166Z,99.90
2019-02-10T08:37:26.319Z,99.90
2019-02-10T08:39:10.827Z,99.90
2019-02-10T08:40:48.211Z,99.90
2019-02-10T08:42:20.850Z,99.90
2019-02-10T08:44:06.397Z,99.90
2019-02-10T08:45:42.961Z,99.90
2019-02-10T08:47:33.701Z,99.90
2019-02-10T08:49:19.319Z,99.90
2019-02-10T08:51:06.817Z,99.90
2019-02-10T08:52:56.255Z,99.90
2019-02-10T08:54:00.339Z,99.90
2019-02-10T08:55:04.582Z,99.90
2019-02-10T08:56:08.900Z,99.90
2019-02-10T08:57:13.011Z,99.90
2019-02-10T08:58:17.104Z,99.90
2019-02-10T08:59:21.199Z,99.90
2019-02-10T09:00:25.295Z,99.90
2019-02-10T09:01:29.410Z,99.90
2019-02-10T09:02:33.482Z,99.90
2019-02-10T09:03:37.551Z,99.90
2019-02-10T09:04:41.636Z,99.90
2019-02-10T09:05:45.819Z,99.90
2019-02-10T09:06:49.887Z,99.90
2019-02-10T09:07:53.959Z,99.90
2019-02-10T09:09:02.657Z,99.90
2019-02-10T09:10:03.870Z,99.90
2019-02-10T09:11:08.100Z,99.90
2019-02-10T09:12:12.318Z,99.90
2019-02-10T09:13:16.402Z,99.90
2019-02-10T09:14:20.473Z,99.90
2019-02-10T09:15:24.573Z,99.90
2019-02-10T09:16:28.751Z,99.90
2019-02-10T09:17:32.884Z,99.90
2019-02-10T09:18:36.952Z,99.90
2019-02-10T09:19:41.066Z,99.90
2019-02-10T09:20:45.247Z,99.90
2019-02-10T09:21:49.343Z,99.90
2019-02-10T09:22:53.410Z,99.90
2019-02-10T09:23:57.482Z,99.90
2019-02-10T09:25:01.576Z,99.90
2019-02-10T09:26:05.702Z,99.90
2019-02-10T09:27:10.227Z,99.90
2019-02-10T09:28:14.295Z,99.90
2019-02-10T09:29:18.367Z,99.90
2019-02-10T09:30:22.515Z,99.90
2019-02-10T09:31:26.587Z,99.90
2019-02-10T09:32:30.742Z,99.90
2019-02-10T09:33:34.803Z,99.90
2019-02-10T09:34:38.876Z,99.90
2019-02-10T09:35:42.945Z,99.90
2019-02-10T09:36:47.019Z,99.90
2019-02-10T09:37:51.120Z,99.90
2019-02-10T09:38:55.191Z,99.90
2019-02-10T09:39:59.363Z,99.90
2019-02-10T09:41:03.490Z,99.90
2019-02-10T09:42:07.593Z,99.90
2019-02-10T09:43:11.798Z,99.90
2019-02-10T09:44:15.871Z,99.90
2019-02-10T09:45:19.931Z,99.90
2019-02-10T09:46:24.010Z,99.90
2019-02-10T09:47:28.084Z,99.90
2019-02-10T09:48:32.229Z,99.90
2019-02-10T09:49:36.330Z,99.90
2019-02-10T09:50:40.411Z,99.90
2019-02-10T09:51:44.487Z,99.90
2019-02-10T09:52:48.638Z,99.90
2019-02-10T09:53:52.731Z,99.90
2019-02-10T09:54:56.795Z,99.90
2019-02-10T09:56:00.870Z,99.90
2019-02-10T09:57:04.948Z,99.90
2019-02-10T09:58:09.210Z,99.90
2019-02-10T09:59:13.318Z,99.90
2019-02-10T10:00:17.399Z,99.90
2019-02-10T10:01:21.532Z,99.90
2019-02-10T10:02:25.603Z,99.90
2019-02-10T10:03:29.675Z,99.90
2019-02-10T10:04:33.793Z,99.90
2019-02-10T10:05:37.926Z,99.90
2019-02-10T10:06:41.999Z,99.90
2019-02-10T10:07:46.075Z,99.90
2019-02-10T10:08:50.141Z,99.90
2019-02-10T10:09:54.366Z,99.90
2019-02-10T10:10:58.438Z,99.90
2019-02-10T10:12:02.507Z,99.90
2019-02-10T10:13:06.743Z,99.90
2019-02-10T10:14:11.126Z,99.90
2019-02-10T10:15:15.868Z,99.90
2019-02-10T10:16:19.955Z,99.90
2019-02-10T10:17:24.035Z,99.90
2019-02-10T10:18:28.110Z,99.90
2019-02-10T10:19:32.204Z,99.90
2019-02-10T10:20:36.297Z,99.90
2019-02-10T10:21:40.384Z,99.90
2019-02-10T10:22:44.460Z,99.90
2019-02-10T10:23:48.531Z,99.90
2019-02-10T10:24:52.615Z,99.90
2019-02-10T10:25:56.703Z,99.90
2019-02-10T10:27:00.831Z,99.90
2019-02-10T10:28:04.915Z,99.90
2019-02-10T10:29:09.394Z,99.90
2019-02-10T10:30:15.641Z,99.90
2019-02-10T10:31:19.800Z,99.90
2019-02-10T10:32:23.873Z,99.90
2019-02-10T10:33:27.941Z,99.90
2019-02-10T10:34:32.014Z,99.90
2019-02-10T10:35:36.087Z,99.90
2019-02-10T10:36:40.242Z,99.90
2019-02-10T10:37:44.331Z,99.90
2019-02-10T10:38:48.432Z,99.90
2019-02-10T10:39:54.248Z,99.90
2019-02-10T10:40:58.472Z,99.90
2019-02-10T10:42:02.565Z,99.90
2019-02-10T10:43:06.673Z,99.90
2019-02-10T10:44:11.365Z,99.90
2019-02-10T10:45:15.459Z,99.90
2019-02-10T10:46:19.592Z,99.90
2019-02-10T10:47:23.730Z,99.90
2019-02-10T10:48:27.858Z,99.90
2019-02-10T10:49:31.931Z,99.90
2019-02-10T10:50:36.007Z,99.90
2019-02-10T10:51:40.067Z,99.90
2019-02-10T10:52:44.162Z,99.90
2019-02-10T10:53:48.243Z,99.90
2019-02-10T10:54:52.328Z,99.90
2019-02-10T10:55:56.395Z,99.90
2019-02-10T10:57:00.475Z,99.90
2019-02-10T10:58:04.564Z,99.90
2019-02-10T10:59:09.175Z,99.90
2019-02-10T11:00:13.599Z,99.90
2019-02-10T11:01:24.970Z,99.90
2019-02-10T11:02:23.731Z,99.90
2019-02-10T11:03:27.826Z,99.90
2019-02-10T11:04:31.915Z,99.90
2019-02-10T11:05:35.996Z,99.90
2019-02-10T11:06:40.075Z,99.90
2019-02-10T11:07:44.146Z,99.90
2019-02-10T11:08:48.243Z,99.90
2019-02-10T11:09:52.328Z,99.90
2019-02-10T11:10:56.407Z,99.90
2019-02-10T11:12:00.491Z,99.90
2019-02-10T11:13:04.644Z,99.90
2019-02-10T11:14:08.967Z,99.90
2019-02-10T11:15:13.167Z,99.90
2019-02-10T11:16:17.259Z,99.90
2019-02-10T11:17:21.341Z,99.90
2019-02-10T11:18:25.436Z,99.90
2019-02-10T11:19:29.571Z,99.90
2019-02-10T11:20:33.655Z,99.90
2019-02-10T11:21:37.739Z,99.90
2019-02-10T11:22:41.855Z,99.90
2019-02-10T11:23:45.927Z,99.90
2019-02-10T11:24:50.022Z,99.90
2019-02-10T11:25:54.091Z,99.90
2019-02-10T11:26:58.167Z,99.90
2019-02-10T11:28:02.238Z,99.90
2019-02-10T11:29:06.325Z,99.90
2019-02-10T11:30:10.915Z,99.90
2019-02-10T11:31:14.998Z,99.90
2019-02-10T11:32:19.066Z,99.90
2019-02-10T11:33:23.142Z,99.90
2019-02-10T11:34:27.203Z,99.90
2019-02-10T11:35:31.320Z,99.90
2019-02-10T11:36:35.396Z,99.90
2019-02-10T11:37:39.472Z,99.90
2019-02-10T11:38:43.662Z,99.90
2019-02-10T11:39:47.735Z,99.90
2019-02-10T11:40:51.895Z,99.90
2019-02-10T11:41:56.021Z,99.90
2019-02-10T11:43:00.135Z,99.90
2019-02-10T11:44:04.238Z,99.90
2019-02-10T11:45:09.478Z,99.90
2019-02-10T11:46:13.616Z,99.90
2019-02-10T11:47:17.702Z,99.90
2019-02-10T11:48:21.762Z,99.90
2019-02-10T11:49:25.847Z,99.90
2019-02-10T11:50:29.922Z,99.90
2019-02-10T11:51:34.035Z,99.90
2019-02-10T11:52:38.110Z,99.90
2019-02-10T11:53:42.184Z,99.90
2019-02-10T11:54:46.259Z,99.90
2019-02-10T11:55:50.340Z,99.90
2019-02-10T11:56:54.427Z,99.90
2019-02-10T11:57:58.529Z,99.90
2019-02-10T11:59:03.018Z,99.90
2019-02-10T12:00:07.755Z,99.90
2019-02-10T12:01:12.119Z,99.90
2019-02-10T12:02:16.290Z,99.90
2019-02-10T12:03:20.364Z,99.90
2019-02-10T12:04:24.434Z,99.90
2019-02-10T12:05:28.506Z,99.90
2019-02-10T12:06:32.592Z,99.90
2019-02-10T12:07:36.763Z,99.90
2019-02-10T12:08:40.830Z,99.90
2019-02-10T12:09:51.520Z,99.90
2019-02-10T12:10:50.701Z,99.90
2019-02-10T12:11:54.791Z,99.90
2019-02-10T12:12:58.894Z,99.90
2019-02-10T12:14:02.971Z,99.90
2019-02-10T12:15:07.706Z,99.90
2019-02-10T12:16:11.964Z,99.90
2019-02-10T12:17:16.150Z,99.90
2019-02-10T12:18:20.258Z,99.90
2019-02-10T12:19:24.331Z,99.90
2019-02-10T12:20:28.410Z,99.90
2019-02-10T12:21:32.550Z,99.90
2019-02-10T12:22:36.622Z,99.90
2019-02-10T12:23:40.763Z,99.90
2019-02-10T12:24:44.826Z,99.90
2019-02-10T12:25:48.943Z,99.90
2019-02-10T12:26:53.011Z,99.90
2019-02-10T12:27:57.075Z,99.90
2019-02-10T12:29:01.238Z,99.90
2019-02-10T12:30:06.013Z,99.90
2019-02-10T12:31:10.524Z,99.90
2019-02-10T12:32:14.599Z,99.90
2019-02-10T12:33:18.715Z,99.90
2019-02-10T12:34:22.806Z,99.90
2019-02-10T12:35:26.939Z,99.90
2019-02-10T12:36:31.007Z,99.90
2019-02-10T12:37:35.131Z,99.90
2019-02-10T12:38:39.317Z,99.90
2019-02-10T12:39:43.475Z,99.90
2019-02-10T12:40:48.425Z,99.90
2019-02-10T12:41:52.609Z,99.90
2019-02-10T12:42:56.687Z,99.90
2019-02-10T12:44:00.783Z,99.90
2019-02-10T12:45:05.278Z,99.90
2019-02-10T12:46:09.535Z,99.90
2019-02-10T12:47:13.698Z,99.90
2019-02-10T12:48:17.820Z,99.90
2019-02-10T12:49:21.903Z,99.90
2019-02-10T12:50:25.977Z,99.90
2019-02-10T12:51:30.064Z,99.90
2019-02-10T12:52:34.134Z,99.90
2019-02-10T12:53:38.206Z,99.90
2019-02-10T12:54:42.275Z,99.90
2019-02-10T12:55:46.387Z,99.90
2019-02-10T12:56:50.452Z,99.90
2019-02-10T12:57:54.530Z,99.90
2019-02-10T12:58:58.683Z,99.90
2019-02-10T13:00:02.810Z,99.90
2019-02-10T13:01:06.980Z,99.90
2019-02-10T13:02:11.194Z,99.90
2019-02-10T13:03:15.374Z,99.90
2019-02-10T13:04:19.452Z,99.90
2019-02-10T13:05:23.519Z,99.90
2019-02-10T13:06:27.617Z,99.90
2019-02-10T13:07:31.696Z,99.90
2019-02-10T13:08:35.768Z,99.90
2019-02-10T13:09:39.851Z,99.90
2019-02-10T13:10:43.912Z,99.90
2019-02-10T13:11:48.043Z,99.90
2019-02-10T13:12:52.142Z,99.90
2019-02-10T13:13:56.227Z,99.90
2019-02-10T13:15:00.291Z,99.90
2019-02-10T13:16:04.370Z,99.90
2019-02-10T13:17:08.726Z,99.90
2019-02-10T13:18:12.914Z,99.90
2019-02-10T13:19:17.054Z,99.90
2019-02-10T13:20:21.124Z,99.90
2019-02-10T13:21:25.195Z,99.90
2019-02-10T13:22:29.319Z,99.90
2019-02-10T13:23:33.407Z,99.90
2019-02-10T13:24:37.493Z,99.90
2019-02-10T13:25:41.567Z,99.90
2019-02-10T13:26:45.684Z,99.90
2019-02-10T13:27:49.793Z,99.90
2019-02-10T13:28:53.863Z,99.90
2019-02-10T13:29:57.958Z,99.90
2019-02-10T13:31:02.031Z,99.90
2019-02-10T13:32:06.105Z,99.90
2019-02-10T13:33:10.931Z,99.90
2019-02-10T13:34:15.006Z,99.90
2019-02-10T13:35:19.079Z,99.90
2019-02-10T13:36:23.142Z,99.90
2019-02-10T13:37:27.210Z,99.90
2019-02-10T13:38:31.311Z,99.90
2019-02-10T13:39:35.383Z,99.90
2019-02-10T13:40:39.455Z,99.90
2019-02-10T13:41:42.134Z,99.90
2019-02-10T13:42:46.230Z,99.90
2019-02-10T13:43:50.362Z,99.90
2019-02-10T13:44:54.460Z,99.90
2019-02-10T13:45:58.531Z,99.90
2019-02-10T13:47:02.607Z,99.90
2019-02-10T13:48:06.731Z,99.90
2019-02-10T13:49:11.119Z,99.90
2019-02-10T13:50:15.511Z,99.90
2019-02-10T13:51:19.591Z,99.90
2019-02-10T13:52:23.658Z,99.90
2019-02-10T13:53:27.731Z,99.90
2019-02-10T13:54:31.840Z,99.90
2019-02-10T13:55:35.911Z,99.90
2019-02-10T13:56:40.120Z,99.90
2019-02-10T13:57:44.199Z,99.90
2019-02-10T13:58:48.279Z,99.90
2019-02-10T13:59:52.375Z,99.90
2019-02-10T14:00:56.469Z,99.90
2019-02-10T14:02:00.538Z,99.90
2019-02-10T14:03:04.628Z,99.90
2019-02-10T14:04:09.173Z,99.90
2019-02-10T14:05:13.456Z,99.90
2019-02-10T14:06:17.554Z,99.90
2019-02-10T14:07:21.627Z,99.90
2019-02-10T14:08:25.710Z,99.90
2019-02-10T14:09:29.895Z,99.90
2019-02-10T14:10:34.044Z,99.90
2019-02-10T14:11:38.115Z,99.90
2019-02-10T14:12:42.183Z,99.90
2019-02-10T14:13:46.252Z,99.90
2019-02-10T14:14:50.327Z,99.90
2019-02-10T14:15:54.451Z,99.90
2019-02-10T14:16:58.522Z,99.90
2019-02-10T14:18:02.604Z,99.90
2019-02-10T14:19:06.705Z,99.90
2019-02-10T14:20:12.975Z,99.90
2019-02-10T14:21:17.062Z,99.90
2019-02-10T14:22:21.130Z,99.90